Terminal Aerodrome Forecast
Issued by NWS

Home | Current Version | Previous Version | Text Only | Print | Product List | Glossary On
Versions: 1 2 3 4 5 6 7 8 9 10 11 12 13
066
FTUS43 KTOP 092333
TAFMHK
TAF
KMHK 092333Z 1000/1024 34007KT P6SM FEW040 BKN100
     FM101000 19006KT P6SM SCT100=

USA.gov is the U.S. government's official web portal to all federal, state and local government web resources and services.